sensor_id;sensor_type;location;lat;lon;timestamp;temperature;humidity
51765;DHT22;37835;53.256;6.456;2023-08-01T00:00:04;16.50;99.90
51765;DHT22;37835;53.256;6.456;2023-08-01T00:02:31;16.50;99.90
51765;DHT22;37835;53.256;6.456;2023-08-01T00:04:56;16.50;99.90
51765;DHT22;37835;53.256;6.456;2023-08-01T00:07:22;16.50;99.90
51765;DHT22;37835;53.256;6.456;2023-08-01T00:09:48;16.50;99.90
51765;DHT22;37835;53.256;6.456;2023-08-01T00:12:14;16.50;99.90
51765;DHT22;37835;53.256;6.456;2023-08-01T00:14:39;16.40;99.90
51765;DHT22;37835;53.256;6.456;2023-08-01T00:17:05;16.40;99.90
51765;DHT22;37835;53.256;6.456;2023-08-01T00:19:31;16.40;99.90
51765;DHT22;37835;53.256;6.456;2023-08-01T00:21:56;16.40;99.90
51765;DHT22;37835;53.256;6.456;2023-08-01T00:24:22;16.40;99.90
51765;DHT22;37835;53.256;6.456;2023-08-01T00:26:48;16.40;99.90
51765;DHT22;37835;53.256;6.456;2023-08-01T00:29:13;16.40;99.90
51765;DHT22;37835;53.256;6.456;2023-08-01T00:31:39;16.30;99.90
51765;DHT22;37835;53.256;6.456;2023-08-01T00:34:04;16.30;99.90
51765;DHT22;37835;53.256;6.456;2023-08-01T00:36:30;16.30;99.90
51765;DHT22;37835;53.256;6.456;2023-08-01T00:38:55;16.30;99.90
51765;DHT22;37835;53.256;6.456;2023-08-01T00:41:21;16.20;99.90
51765;DHT22;37835;53.256;6.456;2023-08-01T00:43:47;16.20;99.90
51765;DHT22;37835;53.256;6.456;2023-08-01T00:46:12;16.20;99.90
51765;DHT22;37835;53.256;6.456;2023-08-01T00:48:38;16.20;99.90
51765;DHT22;37835;53.256;6.456;2023-08-01T00:51:05;16.10;99.90
51765;DHT22;37835;53.256;6.456;2023-08-01T00:53:31;16.10;99.90
51765;DHT22;37835;53.256;6.456;2023-08-01T00:55:58;16.00;99.90
51765;DHT22;37835;53.256;6.456;2023-08-01T00:58:24;16.00;99.90
51765;DHT22;37835;53.256;6.456;2023-08-01T01:00:50;16.00;99.90
51765;DHT22;37835;53.256;6.456;2023-08-01T01:03:16;16.00;99.90
51765;DHT22;37835;53.256;6.456;2023-08-01T01:06:12;15.90;99.90
51765;DHT22;37835;53.256;6.456;2023-08-01T01:08:41;16.00;99.90
51765;DHT22;37835;53.256;6.456;2023-08-01T01:11:07;15.90;99.90
51765;DHT22;37835;53.256;6.456;2023-08-01T01:13:33;15.90;99.90
51765;DHT22;37835;53.256;6.456;2023-08-01T01:15:59;15.90;99.90
51765;DHT22;37835;53.256;6.456;2023-08-01T01:18:25;15.80;99.90
51765;DHT22;37835;53.256;6.456;2023-08-01T01:20:51;15.80;99.90
51765;DHT22;37835;53.256;6.456;2023-08-01T01:23:16;15.80;99.90
51765;DHT22;37835;53.256;6.456;2023-08-01T01:25:43;15.80;99.90
51765;DHT22;37835;53.256;6.456;2023-08-01T01:28:10;15.70;99.90
51765;DHT22;37835;53.256;6.456;2023-08-01T01:30:35;15.70;99.90
51765;DHT22;37835;53.256;6.456;2023-08-01T01:33:02;15.70;99.90
51765;DHT22;37835;53.256;6.456;2023-08-01T01:35:29;15.60;99.90
51765;DHT22;37835;53.256;6.456;2023-08-01T01:37:54;15.60;99.90
51765;DHT22;37835;53.256;6.456;2023-08-01T01:40:20;15.60;99.90
51765;DHT22;37835;53.256;6.456;2023-08-01T01:42:46;15.60;99.90
51765;DHT22;37835;53.256;6.456;2023-08-01T01:45:11;15.50;99.90
51765;DHT22;37835;53.256;6.456;2023-08-01T01:47:37;15.50;99.90
51765;DHT22;37835;53.256;6.456;2023-08-01T01:50:02;15.50;99.90
51765;DHT22;37835;53.256;6.456;2023-08-01T01:52:28;15.50;99.90
51765;DHT22;37835;53.256;6.456;2023-08-01T01:54:54;15.40;99.90
51765;DHT22;37835;53.256;6.456;2023-08-01T01:57:19;15.40;99.90
51765;DHT22;37835;53.256;6.456;2023-08-01T01:59:45;15.40;99.90
51765;DHT22;37835;53.256;6.456;2023-08-01T02:02:11;15.40;99.90
51765;DHT22;37835;53.256;6.456;2023-08-01T02:04:37;15.40;99.90
51765;DHT22;37835;53.256;6.456;2023-08-01T02:07:02;15.30;99.90
51765;DHT22;37835;53.256;6.456;2023-08-01T02:09:28;15.30;99.90
51765;DHT22;37835;53.256;6.456;2023-08-01T02:11:54;15.30;99.90
51765;DHT22;37835;53.256;6.456;2023-08-01T02:14:19;15.30;99.90
51765;DHT22;37835;53.256;6.456;2023-08-01T02:16:45;15.20;99.90
51765;DHT22;37835;53.256;6.456;2023-08-01T02:19:11;15.20;99.90
51765;DHT22;37835;53.256;6.456;2023-08-01T02:21:36;15.10;99.90
51765;DHT22;37835;53.256;6.456;2023-08-01T02:24:02;15.10;99.90
51765;DHT22;37835;53.256;6.456;2023-08-01T02:26:28;15.10;99.90
51765;DHT22;37835;53.256;6.456;2023-08-01T02:28:55;15.10;99.90
51765;DHT22;37835;53.256;6.456;2023-08-01T02:31:20;15.00;99.90
51765;DHT22;37835;53.256;6.456;2023-08-01T02:33:46;15.00;99.90
51765;DHT22;37835;53.256;6.456;2023-08-01T02:36:11;15.00;99.90
51765;DHT22;37835;53.256;6.456;2023-08-01T02:38:37;14.90;99.90
51765;DHT22;37835;53.256;6.456;2023-08-01T02:41:02;14.80;99.90
51765;DHT22;37835;53.256;6.456;2023-08-01T02:43:28;14.90;99.90
51765;DHT22;37835;53.256;6.456;2023-08-01T02:45:54;14.90;99.90
51765;DHT22;37835;53.256;6.456;2023-08-01T02:48:19;14.90;99.90
51765;DHT22;37835;53.256;6.456;2023-08-01T02:50:45;14.80;99.90
51765;DHT22;37835;53.256;6.456;2023-08-01T02:53:11;14.80;99.90
51765;DHT22;37835;53.256;6.456;2023-08-01T02:55:36;14.80;99.90
51765;DHT22;37835;53.256;6.456;2023-08-01T02:58:02;14.80;99.90
51765;DHT22;37835;53.256;6.456;2023-08-01T03:00:28;14.80;99.90
51765;DHT22;37835;53.256;6.456;2023-08-01T03:02:53;14.80;99.90
51765;DHT22;37835;53.256;6.456;2023-08-01T03:05:19;14.80;99.90
51765;DHT22;37835;53.256;6.456;2023-08-01T03:07:44;14.80;99.90
51765;DHT22;37835;53.256;6.456;2023-08-01T03:10:10;14.80;99.90
51765;DHT22;37835;53.256;6.456;2023-08-01T03:12:36;14.80;99.90
51765;DHT22;37835;53.256;6.456;2023-08-01T03:15:03;14.80;99.90
51765;DHT22;37835;53.256;6.456;2023-08-01T03:17:28;14.80;99.90
51765;DHT22;37835;53.256;6.456;2023-08-01T03:19:54;14.90;99.90
51765;DHT22;37835;53.256;6.456;2023-08-01T03:22:19;14.90;99.90
51765;DHT22;37835;53.256;6.456;2023-08-01T03:24:45;14.90;99.90
51765;DHT22;37835;53.256;6.456;2023-08-01T03:27:11;14.90;99.90
51765;DHT22;37835;53.256;6.456;2023-08-01T03:29:36;15.00;99.90
51765;DHT22;37835;53.256;6.456;2023-08-01T03:32:02;15.00;99.90
51765;DHT22;37835;53.256;6.456;2023-08-01T03:34:28;15.00;99.90
51765;DHT22;37835;53.256;6.456;2023-08-01T03:36:53;15.00;99.90
51765;DHT22;37835;53.256;6.456;2023-08-01T03:39:19;15.00;99.90
51765;DHT22;37835;53.256;6.456;2023-08-01T03:41:45;15.00;99.90
51765;DHT22;37835;53.256;6.456;2023-08-01T03:44:11;15.00;99.90
51765;DHT22;37835;53.256;6.456;2023-08-01T03:46:36;15.00;99.90
51765;DHT22;37835;53.256;6.456;2023-08-01T03:49:02;15.00;99.90
51765;DHT22;37835;53.256;6.456;2023-08-01T03:51:27;15.10;99.90
51765;DHT22;37835;53.256;6.456;2023-08-01T03:53:53;15.00;99.90
51765;DHT22;37835;53.256;6.456;2023-08-01T03:56:18;15.10;99.90
51765;DHT22;37835;53.256;6.456;2023-08-01T03:58:44;15.10;99.90
51765;DHT22;37835;53.256;6.456;2023-08-01T04:01:10;15.10;99.90
51765;DHT22;37835;53.256;6.456;2023-08-01T04:03:36;15.10;99.90
51765;DHT22;37835;53.256;6.456;2023-08-01T04:06:02;15.10;99.90
51765;DHT22;37835;53.256;6.456;2023-08-01T04:08:28;15.10;99.90
51765;DHT22;37835;53.256;6.456;2023-08-01T04:10:54;15.00;99.90
51765;DHT22;37835;53.256;6.456;2023-08-01T04:13:19;15.10;99.90
51765;DHT22;37835;53.256;6.456;2023-08-01T04:15:45;15.10;99.90
51765;DHT22;37835;53.256;6.456;2023-08-01T04:18:10;15.10;99.90
51765;DHT22;37835;53.256;6.456;2023-08-01T04:20:36;15.10;99.90
51765;DHT22;37835;53.256;6.456;2023-08-01T04:23:01;15.10;99.90
51765;DHT22;37835;53.256;6.456;2023-08-01T04:25:27;15.10;99.90
51765;DHT22;37835;53.256;6.456;2023-08-01T04:27:53;15.10;99.90
51765;DHT22;37835;53.256;6.456;2023-08-01T04:30:19;15.10;99.90
51765;DHT22;37835;53.256;6.456;2023-08-01T04:32:44;15.10;99.90
51765;DHT22;37835;53.256;6.456;2023-08-01T04:35:10;15.10;99.90
51765;DHT22;37835;53.256;6.456;2023-08-01T04:37:36;15.10;99.90
51765;DHT22;37835;53.256;6.456;2023-08-01T04:40:02;15.10;99.90
51765;DHT22;37835;53.256;6.456;2023-08-01T04:42:28;15.10;99.90
51765;DHT22;37835;53.256;6.456;2023-08-01T04:44:54;15.10;99.90
51765;DHT22;37835;53.256;6.456;2023-08-01T04:47:20;15.10;99.90
51765;DHT22;37835;53.256;6.456;2023-08-01T04:49:46;15.10;99.90
51765;DHT22;37835;53.256;6.456;2023-08-01T04:52:12;15.10;99.90
51765;DHT22;37835;53.256;6.456;2023-08-01T04:54:37;15.10;99.90
51765;DHT22;37835;53.256;6.456;2023-08-01T04:57:03;15.00;99.90
51765;DHT22;37835;53.256;6.456;2023-08-01T04:59:29;15.00;99.90
51765;DHT22;37835;53.256;6.456;2023-08-01T05:01:55;15.10;99.90
51765;DHT22;37835;53.256;6.456;2023-08-01T05:04:20;15.10;99.90
51765;DHT22;37835;53.256;6.456;2023-08-01T05:06:46;15.10;99.90
51765;DHT22;37835;53.256;6.456;2023-08-01T05:09:11;15.20;99.90
51765;DHT22;37835;53.256;6.456;2023-08-01T05:11:37;15.20;99.90
51765;DHT22;37835;53.256;6.456;2023-08-01T05:14:02;15.30;99.90
51765;DHT22;37835;53.256;6.456;2023-08-01T05:16:28;15.30;99.90
51765;DHT22;37835;53.256;6.456;2023-08-01T05:18:53;15.40;99.90
51765;DHT22;37835;53.256;6.456;2023-08-01T05:21:19;15.40;99.90
51765;DHT22;37835;53.256;6.456;2023-08-01T05:23:45;15.40;99.90
51765;DHT22;37835;53.256;6.456;2023-08-01T05:26:10;15.50;99.90
51765;DHT22;37835;53.256;6.456;2023-08-01T05:28:36;15.50;99.90
51765;DHT22;37835;53.256;6.456;2023-08-01T05:31:01;15.50;99.90
51765;DHT22;37835;53.256;6.456;2023-08-01T05:33:27;15.50;99.90
51765;DHT22;37835;53.256;6.456;2023-08-01T05:35:52;15.50;99.90
51765;DHT22;37835;53.256;6.456;2023-08-01T05:38:18;15.50;99.90
51765;DHT22;37835;53.256;6.456;2023-08-01T05:40:43;15.50;99.90
51765;DHT22;37835;53.256;6.456;2023-08-01T05:43:09;15.50;99.90
51765;DHT22;37835;53.256;6.456;2023-08-01T05:45:35;15.50;99.90
51765;DHT22;37835;53.256;6.456;2023-08-01T05:48:01;15.50;99.90
51765;DHT22;37835;53.256;6.456;2023-08-01T05:50:27;15.50;99.90
51765;DHT22;37835;53.256;6.456;2023-08-01T05:52:53;15.50;99.90
51765;DHT22;37835;53.256;6.456;2023-08-01T05:55:19;15.50;99.90
51765;DHT22;37835;53.256;6.456;2023-08-01T05:57:45;15.50;99.90
51765;DHT22;37835;53.256;6.456;2023-08-01T06:00:11;15.50;99.90
51765;DHT22;37835;53.256;6.456;2023-08-01T06:02:37;15.60;99.90
51765;DHT22;37835;53.256;6.456;2023-08-01T06:05:02;15.60;99.90
51765;DHT22;37835;53.256;6.456;2023-08-01T06:07:29;15.50;99.90
51765;DHT22;37835;53.256;6.456;2023-08-01T06:09:55;15.50;99.90
51765;DHT22;37835;53.256;6.456;2023-08-01T06:12:20;15.50;99.90
51765;DHT22;37835;53.256;6.456;2023-08-01T06:14:46;15.50;99.90
51765;DHT22;37835;53.256;6.456;2023-08-01T06:17:13;15.50;99.90
51765;DHT22;37835;53.256;6.456;2023-08-01T06:19:38;15.50;99.90
51765;DHT22;37835;53.256;6.456;2023-08-01T06:22:04;15.50;99.90
51765;DHT22;37835;53.256;6.456;2023-08-01T06:24:30;15.50;99.90
51765;DHT22;37835;53.256;6.456;2023-08-01T06:26:55;15.50;99.90
51765;DHT22;37835;53.256;6.456;2023-08-01T06:29:21;15.50;99.90
51765;DHT22;37835;53.256;6.456;2023-08-01T06:31:46;15.50;99.90
51765;DHT22;37835;53.256;6.456;2023-08-01T06:34:12;16.00;99.90
51765;DHT22;37835;53.256;6.456;2023-08-01T06:36:38;15.50;99.90
51765;DHT22;37835;53.256;6.456;2023-08-01T06:39:03;15.50;99.90
51765;DHT22;37835;53.256;6.456;2023-08-01T06:41:29;15.60;99.90
51765;DHT22;37835;53.256;6.456;2023-08-01T06:43:55;15.50;99.90
51765;DHT22;37835;53.256;6.456;2023-08-01T06:46:20;15.50;99.90
51765;DHT22;37835;53.256;6.456;2023-08-01T06:48:46;15.60;99.90
51765;DHT22;37835;53.256;6.456;2023-08-01T06:51:11;15.60;99.90
51765;DHT22;37835;53.256;6.456;2023-08-01T06:53:37;15.70;99.90
51765;DHT22;37835;53.256;6.456;2023-08-01T06:56:03;15.70;99.90
51765;DHT22;37835;53.256;6.456;2023-08-01T06:58:28;15.80;99.90
51765;DHT22;37835;53.256;6.456;2023-08-01T07:00:54;15.80;99.90
51765;DHT22;37835;53.256;6.456;2023-08-01T07:03:20;15.90;99.90
51765;DHT22;37835;53.256;6.456;2023-08-01T07:05:46;15.90;99.90
51765;DHT22;37835;53.256;6.456;2023-08-01T07:08:11;15.90;99.90
51765;DHT22;37835;53.256;6.456;2023-08-01T07:10:37;15.90;99.90
51765;DHT22;37835;53.256;6.456;2023-08-01T07:13:03;15.90;99.90
51765;DHT22;37835;53.256;6.456;2023-08-01T07:15:32;15.90;99.90
51765;DHT22;37835;53.256;6.456;2023-08-01T07:17:58;15.90;99.90
51765;DHT22;37835;53.256;6.456;2023-08-01T07:20:24;16.00;99.90
51765;DHT22;37835;53.256;6.456;2023-08-01T07:22:49;16.00;99.90
51765;DHT22;37835;53.256;6.456;2023-08-01T07:25:15;16.00;99.90
51765;DHT22;37835;53.256;6.456;2023-08-01T07:27:41;16.10;99.90
51765;DHT22;37835;53.256;6.456;2023-08-01T07:30:07;16.10;99.90
51765;DHT22;37835;53.256;6.456;2023-08-01T07:32:34;16.10;99.90
51765;DHT22;37835;53.256;6.456;2023-08-01T07:34:59;16.10;99.90
51765;DHT22;37835;53.256;6.456;2023-08-01T07:37:25;16.10;99.90
51765;DHT22;37835;53.256;6.456;2023-08-01T07:39:54;16.00;99.90
51765;DHT22;37835;53.256;6.456;2023-08-01T07:42:19;16.00;99.90
51765;DHT22;37835;53.256;6.456;2023-08-01T07:44:45;15.90;99.90
51765;DHT22;37835;53.256;6.456;2023-08-01T07:47:10;15.90;99.90
51765;DHT22;37835;53.256;6.456;2023-08-01T07:49:36;15.90;99.90
51765;DHT22;37835;53.256;6.456;2023-08-01T07:52:02;15.90;99.90
51765;DHT22;37835;53.256;6.456;2023-08-01T07:54:27;16.00;99.90
51765;DHT22;37835;53.256;6.456;2023-08-01T07:56:53;16.00;99.90
51765;DHT22;37835;53.256;6.456;2023-08-01T07:59:18;16.10;99.90
51765;DHT22;37835;53.256;6.456;2023-08-01T08:01:44;16.10;99.90
51765;DHT22;37835;53.256;6.456;2023-08-01T08:04:09;16.20;99.90
51765;DHT22;37835;53.256;6.456;2023-08-01T08:06:36;16.30;99.90
51765;DHT22;37835;53.256;6.456;2023-08-01T08:09:01;16.30;99.90
51765;DHT22;37835;53.256;6.456;2023-08-01T08:11:27;16.40;99.90
51765;DHT22;37835;53.256;6.456;2023-08-01T08:13:52;16.50;99.90
51765;DHT22;37835;53.256;6.456;2023-08-01T08:16:18;16.60;99.90
51765;DHT22;37835;53.256;6.456;2023-08-01T08:18:44;16.60;99.90
51765;DHT22;37835;53.256;6.456;2023-08-01T08:21:09;16.70;99.90
51765;DHT22;37835;53.256;6.456;2023-08-01T08:23:35;16.60;99.90
51765;DHT22;37835;53.256;6.456;2023-08-01T08:26:01;16.60;99.90
51765;DHT22;37835;53.256;6.456;2023-08-01T08:28:31;16.60;99.90
51765;DHT22;37835;53.256;6.456;2023-08-01T08:30:58;16.50;99.90
51765;DHT22;37835;53.256;6.456;2023-08-01T08:33:24;16.40;99.90
51765;DHT22;37835;53.256;6.456;2023-08-01T08:35:50;16.30;99.90
51765;DHT22;37835;53.256;6.456;2023-08-01T08:38:17;16.20;99.90
51765;DHT22;37835;53.256;6.456;2023-08-01T08:41:09;16.10;99.90
51765;DHT22;37835;53.256;6.456;2023-08-01T08:43:33;16.00;99.90
51765;DHT22;37835;53.256;6.456;2023-08-01T08:46:01;16.00;99.90
51765;DHT22;37835;53.256;6.456;2023-08-01T08:48:28;16.00;99.90
51765;DHT22;37835;53.256;6.456;2023-08-01T08:50:56;16.00;99.90
51765;DHT22;37835;53.256;6.456;2023-08-01T08:53:22;16.00;99.90
51765;DHT22;37835;53.256;6.456;2023-08-01T08:55:48;16.00;99.90
51765;DHT22;37835;53.256;6.456;2023-08-01T08:58:15;16.10;99.90
51765;DHT22;37835;53.256;6.456;2023-08-01T09:00:42;16.10;99.90
51765;DHT22;37835;53.256;6.456;2023-08-01T09:03:08;16.10;99.90
51765;DHT22;37835;53.256;6.456;2023-08-01T09:08:35;16.40;99.90
51765;DHT22;37835;53.256;6.456;2023-08-01T09:11:01;16.60;99.90
51765;DHT22;37835;53.256;6.456;2023-08-01T09:13:26;16.60;99.90
51765;DHT22;37835;53.256;6.456;2023-08-01T09:15:52;16.70;99.90
51765;DHT22;37835;53.256;6.456;2023-08-01T09:18:18;16.70;99.90
51765;DHT22;37835;53.256;6.456;2023-08-01T09:20:48;16.80;99.90
51765;DHT22;37835;53.256;6.456;2023-08-01T09:23:14;16.80;99.90
51765;DHT22;37835;53.256;6.456;2023-08-01T09:25:41;16.80;99.90
51765;DHT22;37835;53.256;6.456;2023-08-01T09:28:20;16.80;99.90
51765;DHT22;37835;53.256;6.456;2023-08-01T09:30:50;16.80;99.90
51765;DHT22;37835;53.256;6.456;2023-08-01T09:33:16;16.80;99.90
51765;DHT22;37835;53.256;6.456;2023-08-01T09:35:42;16.60;99.90
51765;DHT22;37835;53.256;6.456;2023-08-01T09:38:10;16.50;99.90
51765;DHT22;37835;53.256;6.456;2023-08-01T09:40:40;16.50;99.90
51765;DHT22;37835;53.256;6.456;2023-08-01T09:43:06;16.50;99.90
51765;DHT22;37835;53.256;6.456;2023-08-01T09:45:32;16.60;99.90
51765;DHT22;37835;53.256;6.456;2023-08-01T09:47:59;16.70;99.90
51765;DHT22;37835;53.256;6.456;2023-08-01T09:50:25;16.90;99.90
51765;DHT22;37835;53.256;6.456;2023-08-01T09:52:51;17.00;99.90
51765;DHT22;37835;53.256;6.456;2023-08-01T09:55:42;17.20;99.90
51765;DHT22;37835;53.256;6.456;2023-08-01T09:58:13;17.40;99.90
51765;DHT22;37835;53.256;6.456;2023-08-01T10:00:42;17.50;99.90
51765;DHT22;37835;53.256;6.456;2023-08-01T10:03:09;17.70;99.90
51765;DHT22;37835;53.256;6.456;2023-08-01T10:05:35;17.80;99.90
51765;DHT22;37835;53.256;6.456;2023-08-01T10:08:02;17.90;99.90
51765;DHT22;37835;53.256;6.456;2023-08-01T10:10:30;18.00;99.90
51765;DHT22;37835;53.256;6.456;2023-08-01T10:13:01;18.00;99.90
51765;DHT22;37835;53.256;6.456;2023-08-01T10:15:28;18.20;99.90
51765;DHT22;37835;53.256;6.456;2023-08-01T10:17:54;18.10;99.90
51765;DHT22;37835;53.256;6.456;2023-08-01T10:20:21;18.00;99.90
51765;DHT22;37835;53.256;6.456;2023-08-01T10:22:48;17.90;99.90
51765;DHT22;37835;53.256;6.456;2023-08-01T10:25:16;17.80;99.90
51765;DHT22;37835;53.256;6.456;2023-08-01T10:27:42;17.70;99.90
51765;DHT22;37835;53.256;6.456;2023-08-01T10:30:08;17.70;99.90
51765;DHT22;37835;53.256;6.456;2023-08-01T10:32:39;17.70;99.90
51765;DHT22;37835;53.256;6.456;2023-08-01T10:35:05;17.70;99.90
51765;DHT22;37835;53.256;6.456;2023-08-01T10:37:44;17.90;99.90
51765;DHT22;37835;53.256;6.456;2023-08-01T10:40:12;18.00;99.90
51765;DHT22;37835;53.256;6.456;2023-08-01T10:42:45;18.10;99.90
51765;DHT22;37835;53.256;6.456;2023-08-01T10:45:24;18.10;99.90
51765;DHT22;37835;53.256;6.456;2023-08-01T10:47:50;18.20;99.90
51765;DHT22;37835;53.256;6.456;2023-08-01T10:50:16;18.20;99.90
51765;DHT22;37835;53.256;6.456;2023-08-01T10:52:43;18.20;99.90
51765;DHT22;37835;53.256;6.456;2023-08-01T10:55:09;18.30;99.90
51765;DHT22;37835;53.256;6.456;2023-08-01T10:57:36;18.30;99.90
51765;DHT22;37835;53.256;6.456;2023-08-01T11:00:03;18.30;99.90
51765;DHT22;37835;53.256;6.456;2023-08-01T11:02:34;18.30;99.90
51765;DHT22;37835;53.256;6.456;2023-08-01T11:05:07;18.40;99.90
51765;DHT22;37835;53.256;6.456;2023-08-01T11:07:34;18.50;99.90
51765;DHT22;37835;53.256;6.456;2023-08-01T11:10:11;18.60;99.90
51765;DHT22;37835;53.256;6.456;2023-08-01T11:12:39;18.60;99.90
51765;DHT22;37835;53.256;6.456;2023-08-01T11:15:07;18.60;99.90
51765;DHT22;37835;53.256;6.456;2023-08-01T11:17:36;18.60;99.90
51765;DHT22;37835;53.256;6.456;2023-08-01T11:20:09;18.60;99.90
51765;DHT22;37835;53.256;6.456;2023-08-01T11:22:36;18.50;99.90
51765;DHT22;37835;53.256;6.456;2023-08-01T11:25:02;18.70;99.90
51765;DHT22;37835;53.256;6.456;2023-08-01T11:27:28;18.60;99.90
51765;DHT22;37835;53.256;6.456;2023-08-01T11:29:55;18.80;99.90
51765;DHT22;37835;53.256;6.456;2023-08-01T11:32:21;18.80;99.90
51765;DHT22;37835;53.256;6.456;2023-08-01T11:34:49;18.90;99.90
51765;DHT22;37835;53.256;6.456;2023-08-01T11:37:17;19.00;99.90
51765;DHT22;37835;53.256;6.456;2023-08-01T11:39:44;19.00;99.90
51765;DHT22;37835;53.256;6.456;2023-08-01T11:42:17;19.10;99.90
51765;DHT22;37835;53.256;6.456;2023-08-01T11:44:43;19.10;99.90
51765;DHT22;37835;53.256;6.456;2023-08-01T11:47:18;19.00;99.90
51765;DHT22;37835;53.256;6.456;2023-08-01T11:49:50;19.00;99.90
51765;DHT22;37835;53.256;6.456;2023-08-01T11:52:26;19.00;99.90
51765;DHT22;37835;53.256;6.456;2023-08-01T11:54:53;19.00;99.90
51765;DHT22;37835;53.256;6.456;2023-08-01T11:57:20;19.00;99.90
51765;DHT22;37835;53.256;6.456;2023-08-01T11:59:51;19.10;99.90
51765;DHT22;37835;53.256;6.456;2023-08-01T12:02:28;19.00;99.90
51765;DHT22;37835;53.256;6.456;2023-08-01T12:04:55;18.90;99.90
51765;DHT22;37835;53.256;6.456;2023-08-01T12:07:21;18.90;99.90
51765;DHT22;37835;53.256;6.456;2023-08-01T12:09:59;18.90;99.90
51765;DHT22;37835;53.256;6.456;2023-08-01T12:12:28;18.90;99.90
51765;DHT22;37835;53.256;6.456;2023-08-01T12:14:54;19.00;99.90
51765;DHT22;37835;53.256;6.456;2023-08-01T12:17:21;19.00;99.90
51765;DHT22;37835;53.256;6.456;2023-08-01T12:19:47;19.00;99.90
51765;DHT22;37835;53.256;6.456;2023-08-01T12:22:13;19.10;99.90
51765;DHT22;37835;53.256;6.456;2023-08-01T12:24:40;19.20;99.90
51765;DHT22;37835;53.256;6.456;2023-08-01T12:27:07;19.40;99.90
51765;DHT22;37835;53.256;6.456;2023-08-01T12:29:32;19.50;99.90
51765;DHT22;37835;53.256;6.456;2023-08-01T12:31:58;19.60;99.90
51765;DHT22;37835;53.256;6.456;2023-08-01T12:34:24;19.50;99.90
51765;DHT22;37835;53.256;6.456;2023-08-01T12:36:49;19.40;99.90
51765;DHT22;37835;53.256;6.456;2023-08-01T12:39:15;19.30;99.90
51765;DHT22;37835;53.256;6.456;2023-08-01T12:41:41;19.20;99.90
51765;DHT22;37835;53.256;6.456;2023-08-01T12:44:06;19.20;99.90
51765;DHT22;37835;53.256;6.456;2023-08-01T12:46:32;19.20;99.90
51765;DHT22;37835;53.256;6.456;2023-08-01T12:48:58;19.30;99.90
51765;DHT22;37835;53.256;6.456;2023-08-01T12:51:23;19.40;99.90
51765;DHT22;37835;53.256;6.456;2023-08-01T12:53:49;19.50;99.90
51765;DHT22;37835;53.256;6.456;2023-08-01T12:56:15;19.70;99.90
51765;DHT22;37835;53.256;6.456;2023-08-01T12:58:40;19.70;99.90
51765;DHT22;37835;53.256;6.456;2023-08-01T13:01:06;19.60;99.90
51765;DHT22;37835;53.256;6.456;2023-08-01T13:03:32;19.50;99.90
51765;DHT22;37835;53.256;6.456;2023-08-01T13:05:59;19.40;99.90
51765;DHT22;37835;53.256;6.456;2023-08-01T13:08:24;19.30;99.90
51765;DHT22;37835;53.256;6.456;2023-08-01T13:10:50;19.20;99.90
51765;DHT22;37835;53.256;6.456;2023-08-01T13:13:16;19.10;99.90
51765;DHT22;37835;53.256;6.456;2023-08-01T13:15:42;19.00;99.90
51765;DHT22;37835;53.256;6.456;2023-08-01T13:18:08;18.90;99.90
51765;DHT22;37835;53.256;6.456;2023-08-01T13:20:34;19.00;99.90
51765;DHT22;37835;53.256;6.456;2023-08-01T13:23:00;19.20;99.90
51765;DHT22;37835;53.256;6.456;2023-08-01T13:25:25;19.30;99.90
51765;DHT22;37835;53.256;6.456;2023-08-01T13:27:51;19.50;99.90
51765;DHT22;37835;53.256;6.456;2023-08-01T13:30:16;19.70;99.90
51765;DHT22;37835;53.256;6.456;2023-08-01T13:32:44;19.80;99.90
51765;DHT22;37835;53.256;6.456;2023-08-01T13:35:14;19.80;99.90
51765;DHT22;37835;53.256;6.456;2023-08-01T13:37:40;19.80;99.90
51765;DHT22;37835;53.256;6.456;2023-08-01T13:40:06;19.90;99.90
51765;DHT22;37835;53.256;6.456;2023-08-01T13:42:31;19.90;99.90
51765;DHT22;37835;53.256;6.456;2023-08-01T13:44:59;19.90;99.90
51765;DHT22;37835;53.256;6.456;2023-08-01T13:47:24;19.80;99.90
51765;DHT22;37835;53.256;6.456;2023-08-01T13:49:50;19.60;99.90
51765;DHT22;37835;53.256;6.456;2023-08-01T13:52:15;19.30;99.90
51765;DHT22;37835;53.256;6.456;2023-08-01T13:54:41;19.10;99.90
51765;DHT22;37835;53.256;6.456;2023-08-01T13:57:07;18.90;99.90
51765;DHT22;37835;53.256;6.456;2023-08-01T13:59:32;18.80;99.90
51765;DHT22;37835;53.256;6.456;2023-08-01T14:01:58;18.70;99.90
51765;DHT22;37835;53.256;6.456;2023-08-01T14:04:23;18.70;99.90
51765;DHT22;37835;53.256;6.456;2023-08-01T14:06:49;18.80;99.90
51765;DHT22;37835;53.256;6.456;2023-08-01T14:09:14;18.90;99.90
51765;DHT22;37835;53.256;6.456;2023-08-01T14:11:40;19.00;99.90
51765;DHT22;37835;53.256;6.456;2023-08-01T14:14:06;19.10;99.90
51765;DHT22;37835;53.256;6.456;2023-08-01T14:16:31;19.20;99.90
51765;DHT22;37835;53.256;6.456;2023-08-01T14:18:58;19.20;99.90
51765;DHT22;37835;53.256;6.456;2023-08-01T14:21:24;19.30;99.90
51765;DHT22;37835;53.256;6.456;2023-08-01T14:23:49;19.30;99.90
51765;DHT22;37835;53.256;6.456;2023-08-01T14:26:15;19.40;99.90
51765;DHT22;37835;53.256;6.456;2023-08-01T14:28:40;19.20;99.90
51765;DHT22;37835;53.256;6.456;2023-08-01T14:31:06;19.10;99.90
51765;DHT22;37835;53.256;6.456;2023-08-01T14:33:33;18.80;99.90
51765;DHT22;37835;53.256;6.456;2023-08-01T14:35:59;18.60;99.90
51765;DHT22;37835;53.256;6.456;2023-08-01T14:38:24;18.40;99.90
51765;DHT22;37835;53.256;6.456;2023-08-01T14:40:51;18.30;99.90
51765;DHT22;37835;53.256;6.456;2023-08-01T14:43:16;18.30;99.90
51765;DHT22;37835;53.256;6.456;2023-08-01T14:45:42;18.30;99.90
51765;DHT22;37835;53.256;6.456;2023-08-01T14:48:08;18.30;99.90
51765;DHT22;37835;53.256;6.456;2023-08-01T14:50:34;18.30;99.90
51765;DHT22;37835;53.256;6.456;2023-08-01T14:53:00;18.40;99.90
51765;DHT22;37835;53.256;6.456;2023-08-01T14:55:28;18.60;99.90
51765;DHT22;37835;53.256;6.456;2023-08-01T14:57:54;18.70;99.90
51765;DHT22;37835;53.256;6.456;2023-08-01T15:00:19;18.90;99.90
51765;DHT22;37835;53.256;6.456;2023-08-01T15:02:45;19.00;99.90
51765;DHT22;37835;53.256;6.456;2023-08-01T15:05:12;19.10;99.90
51765;DHT22;37835;53.256;6.456;2023-08-01T15:07:37;19.20;99.90
51765;DHT22;37835;53.256;6.456;2023-08-01T15:10:03;19.20;99.90
51765;DHT22;37835;53.256;6.456;2023-08-01T15:12:29;19.10;99.90
51765;DHT22;37835;53.256;6.456;2023-08-01T15:14:55;19.10;99.90
51765;DHT22;37835;53.256;6.456;2023-08-01T15:17:22;19.30;99.90
51765;DHT22;37835;53.256;6.456;2023-08-01T15:19:47;19.30;99.90
51765;DHT22;37835;53.256;6.456;2023-08-01T15:22:14;19.40;99.90
51765;DHT22;37835;53.256;6.456;2023-08-01T15:24:40;19.30;99.90
51765;DHT22;37835;53.256;6.456;2023-08-01T15:27:06;19.30;99.90